sensor_id;sensor_type;location;lat;lon;timestamp;temperature;humidity
76263;DHT22;65080;50.908;6.916;2023-04-15T00:01:57;9.50;53.60
76263;DHT22;65080;50.908;6.916;2023-04-15T00:04:26;9.50;53.70
76263;DHT22;65080;50.908;6.916;2023-04-15T00:06:55;9.40;53.80
76263;DHT22;65080;50.908;6.916;2023-04-15T00:09:25;9.40;53.90
76263;DHT22;65080;50.908;6.916;2023-04-15T00:11:53;9.40;54.10
76263;DHT22;65080;50.908;6.916;2023-04-15T00:14:21;9.40;54.10
76263;DHT22;65080;50.908;6.916;2023-04-15T00:16:50;9.40;54.20
76263;DHT22;65080;50.908;6.916;2023-04-15T00:19:22;9.30;54.20
76263;DHT22;65080;50.908;6.916;2023-04-15T00:21:51;9.30;54.20
76263;DHT22;65080;50.908;6.916;2023-04-15T00:24:19;9.30;54.30
76263;DHT22;65080;50.908;6.916;2023-04-15T00:26:49;9.20;54.40
76263;DHT22;65080;50.908;6.916;2023-04-15T00:29:17;9.30;54.60
76263;DHT22;65080;50.908;6.916;2023-04-15T00:31:45;9.20;54.60
76263;DHT22;65080;50.908;6.916;2023-04-15T00:34:14;9.20;54.70
76263;DHT22;65080;50.908;6.916;2023-04-15T00:36:42;9.20;54.80
76263;DHT22;65080;50.908;6.916;2023-04-15T00:39:10;9.00;54.60
76263;DHT22;65080;50.908;6.916;2023-04-15T00:41:39;9.10;54.80
76263;DHT22;65080;50.908;6.916;2023-04-15T00:44:08;9.10;54.80
76263;DHT22;65080;50.908;6.916;2023-04-15T00:46:38;9.00;54.80
76263;DHT22;65080;50.908;6.916;2023-04-15T00:49:06;9.00;54.90
76263;DHT22;65080;50.908;6.916;2023-04-15T00:51:34;9.00;54.90
76263;DHT22;65080;50.908;6.916;2023-04-15T00:54:03;8.90;54.90
76263;DHT22;65080;50.908;6.916;2023-04-15T00:56:34;8.80;54.90
76263;DHT22;65080;50.908;6.916;2023-04-15T00:59:02;8.80;55.00
76263;DHT22;65080;50.908;6.916;2023-04-15T01:01:33;8.90;55.10
76263;DHT22;65080;50.908;6.916;2023-04-15T01:04:03;8.70;55.00
76263;DHT22;65080;50.908;6.916;2023-04-15T01:06:32;8.70;55.10
76263;DHT22;65080;50.908;6.916;2023-04-15T01:09:00;8.70;55.10
76263;DHT22;65080;50.908;6.916;2023-04-15T01:11:31;8.60;55.10
76263;DHT22;65080;50.908;6.916;2023-04-15T01:14:00;8.50;55.20
76263;DHT22;65080;50.908;6.916;2023-04-15T01:16:30;8.50;55.30
76263;DHT22;65080;50.908;6.916;2023-04-15T01:19:00;8.50;55.50
76263;DHT22;65080;50.908;6.916;2023-04-15T01:21:29;8.50;55.70
76263;DHT22;65080;50.908;6.916;2023-04-15T01:23:58;8.50;55.80
76263;DHT22;65080;50.908;6.916;2023-04-15T01:26:27;8.50;55.90
76263;DHT22;65080;50.908;6.916;2023-04-15T01:28:56;8.60;56.20
76263;DHT22;65080;50.908;6.916;2023-04-15T01:31:25;8.50;56.20
76263;DHT22;65080;50.908;6.916;2023-04-15T01:33:53;8.50;56.30
76263;DHT22;65080;50.908;6.916;2023-04-15T01:36:21;8.50;56.40
76263;DHT22;65080;50.908;6.916;2023-04-15T01:38:50;8.50;56.50
76263;DHT22;65080;50.908;6.916;2023-04-15T01:41:21;8.50;56.50
76263;DHT22;65080;50.908;6.916;2023-04-15T01:43:52;8.50;56.60
76263;DHT22;65080;50.908;6.916;2023-04-15T01:46:21;8.40;56.60
76263;DHT22;65080;50.908;6.916;2023-04-15T01:48:49;8.40;56.70
76263;DHT22;65080;50.908;6.916;2023-04-15T01:51:17;8.40;56.70
76263;DHT22;65080;50.908;6.916;2023-04-15T01:53:46;8.40;56.90
76263;DHT22;65080;50.908;6.916;2023-04-15T01:56:14;8.40;56.90
76263;DHT22;65080;50.908;6.916;2023-04-15T01:58:43;8.30;57.00
76263;DHT22;65080;50.908;6.916;2023-04-15T02:01:12;8.30;57.10
76263;DHT22;65080;50.908;6.916;2023-04-15T02:03:43;8.20;57.10
76263;DHT22;65080;50.908;6.916;2023-04-15T02:06:11;8.20;57.20
76263;DHT22;65080;50.908;6.916;2023-04-15T02:08:39;8.20;57.30
76263;DHT22;65080;50.908;6.916;2023-04-15T02:11:07;8.20;57.40
76263;DHT22;65080;50.908;6.916;2023-04-15T02:13:36;8.20;57.50
76263;DHT22;65080;50.908;6.916;2023-04-15T02:16:15;8.20;57.60
76263;DHT22;65080;50.908;6.916;2023-04-15T02:18:45;8.20;57.60
76263;DHT22;65080;50.908;6.916;2023-04-15T02:21:14;8.20;58.20
76263;DHT22;65080;50.908;6.916;2023-04-15T02:23:42;8.20;57.70
76263;DHT22;65080;50.908;6.916;2023-04-15T02:26:10;8.10;57.70
76263;DHT22;65080;50.908;6.916;2023-04-15T02:28:39;8.10;57.80
76263;DHT22;65080;50.908;6.916;2023-04-15T02:31:07;8.10;57.90
76263;DHT22;65080;50.908;6.916;2023-04-15T02:33:36;8.10;57.90
76263;DHT22;65080;50.908;6.916;2023-04-15T02:36:05;8.00;57.80
76263;DHT22;65080;50.908;6.916;2023-04-15T02:38:33;8.10;58.00
76263;DHT22;65080;50.908;6.916;2023-04-15T02:41:02;8.00;58.00
76263;DHT22;65080;50.908;6.916;2023-04-15T02:43:30;8.00;58.10
76263;DHT22;65080;50.908;6.916;2023-04-15T02:45:58;8.00;58.20
76263;DHT22;65080;50.908;6.916;2023-04-15T02:48:27;8.00;58.30
76263;DHT22;65080;50.908;6.916;2023-04-15T02:53:49;8.00;58.40
76263;DHT22;65080;50.908;6.916;2023-04-15T02:56:17;7.90;58.50
76263;DHT22;65080;50.908;6.916;2023-04-15T02:58:45;7.90;58.60
76263;DHT22;65080;50.908;6.916;2023-04-15T03:01:16;7.90;58.70
76263;DHT22;65080;50.908;6.916;2023-04-15T03:03:46;7.90;58.80
76263;DHT22;65080;50.908;6.916;2023-04-15T03:06:14;7.90;58.80
76263;DHT22;65080;50.908;6.916;2023-04-15T03:08:43;7.80;58.70
76263;DHT22;65080;50.908;6.916;2023-04-15T03:11:13;7.80;58.90
76263;DHT22;65080;50.908;6.916;2023-04-15T03:13:42;7.80;58.90
76263;DHT22;65080;50.908;6.916;2023-04-15T03:16:10;7.80;59.10
76263;DHT22;65080;50.908;6.916;2023-04-15T03:18:38;7.80;59.10
76263;DHT22;65080;50.908;6.916;2023-04-15T03:21:06;7.80;59.20
76263;DHT22;65080;50.908;6.916;2023-04-15T03:23:34;7.70;59.10
76263;DHT22;65080;50.908;6.916;2023-04-15T03:26:03;7.70;59.10
76263;DHT22;65080;50.908;6.916;2023-04-15T03:28:33;7.70;59.20
76263;DHT22;65080;50.908;6.916;2023-04-15T03:31:01;7.60;59.10
76263;DHT22;65080;50.908;6.916;2023-04-15T03:33:29;7.60;59.20
76263;DHT22;65080;50.908;6.916;2023-04-15T03:35:58;7.60;59.10
76263;DHT22;65080;50.908;6.916;2023-04-15T03:38:26;7.60;59.10
76263;DHT22;65080;50.908;6.916;2023-04-15T03:40:54;7.60;59.10
76263;DHT22;65080;50.908;6.916;2023-04-15T03:43:22;7.50;59.20
76263;DHT22;65080;50.908;6.916;2023-04-15T03:45:52;7.50;59.40
76263;DHT22;65080;50.908;6.916;2023-04-15T03:48:20;7.50;59.60
76263;DHT22;65080;50.908;6.916;2023-04-15T03:50:48;7.50;59.60
76263;DHT22;65080;50.908;6.916;2023-04-15T03:53:16;7.40;59.60
76263;DHT22;65080;50.908;6.916;2023-04-15T03:55:45;7.40;59.60
76263;DHT22;65080;50.908;6.916;2023-04-15T03:58:13;7.40;59.60
76263;DHT22;65080;50.908;6.916;2023-04-15T04:00:41;7.40;59.60
76263;DHT22;65080;50.908;6.916;2023-04-15T04:03:11;7.40;59.70
76263;DHT22;65080;50.908;6.916;2023-04-15T04:05:39;7.40;59.80
76263;DHT22;65080;50.908;6.916;2023-04-15T04:08:08;7.40;59.90
76263;DHT22;65080;50.908;6.916;2023-04-15T04:10:39;7.40;59.90
76263;DHT22;65080;50.908;6.916;2023-04-15T04:13:08;7.40;60.50
76263;DHT22;65080;50.908;6.916;2023-04-15T04:15:36;7.40;60.00
76263;DHT22;65080;50.908;6.916;2023-04-15T04:18:04;7.40;59.90
76263;DHT22;65080;50.908;6.916;2023-04-15T04:20:34;7.30;60.00
76263;DHT22;65080;50.908;6.916;2023-04-15T04:23:02;7.30;60.00
76263;DHT22;65080;50.908;6.916;2023-04-15T04:25:30;7.30;60.00
76263;DHT22;65080;50.908;6.916;2023-04-15T04:27:59;7.20;60.00
76263;DHT22;65080;50.908;6.916;2023-04-15T04:30:27;7.20;60.00
76263;DHT22;65080;50.908;6.916;2023-04-15T04:32:55;7.20;60.10
76263;DHT22;65080;50.908;6.916;2023-04-15T04:35:23;7.20;60.10
76263;DHT22;65080;50.908;6.916;2023-04-15T04:37:53;7.10;60.10
76263;DHT22;65080;50.908;6.916;2023-04-15T04:40:22;7.10;60.20
76263;DHT22;65080;50.908;6.916;2023-04-15T04:42:50;7.00;60.40
76263;DHT22;65080;50.908;6.916;2023-04-15T04:45:18;7.00;60.50
76263;DHT22;65080;50.908;6.916;2023-04-15T04:47:47;7.00;60.60
76263;DHT22;65080;50.908;6.916;2023-04-15T04:50:16;7.00;60.70
76263;DHT22;65080;50.908;6.916;2023-04-15T04:52:44;6.90;60.80
76263;DHT22;65080;50.908;6.916;2023-04-15T04:55:13;6.90;61.10
76263;DHT22;65080;50.908;6.916;2023-04-15T04:57:42;6.90;61.20
76263;DHT22;65080;50.908;6.916;2023-04-15T05:00:11;6.90;61.20
76263;DHT22;65080;50.908;6.916;2023-04-15T05:02:40;6.80;61.20
76263;DHT22;65080;50.908;6.916;2023-04-15T05:05:10;6.80;61.40
76263;DHT22;65080;50.908;6.916;2023-04-15T05:07:39;6.80;61.40
76263;DHT22;65080;50.908;6.916;2023-04-15T05:10:08;6.80;61.60
76263;DHT22;65080;50.908;6.916;2023-04-15T05:12:37;6.80;61.70
76263;DHT22;65080;50.908;6.916;2023-04-15T05:15:07;6.80;61.70
76263;DHT22;65080;50.908;6.916;2023-04-15T05:17:35;6.80;61.70
76263;DHT22;65080;50.908;6.916;2023-04-15T05:20:04;6.80;61.70
76263;DHT22;65080;50.908;6.916;2023-04-15T05:22:33;6.70;61.70
76263;DHT22;65080;50.908;6.916;2023-04-15T05:25:01;6.70;61.80
76263;DHT22;65080;50.908;6.916;2023-04-15T05:27:30;6.70;61.90
76263;DHT22;65080;50.908;6.916;2023-04-15T05:29:59;6.70;62.00
76263;DHT22;65080;50.908;6.916;2023-04-15T05:32:27;6.70;62.00
76263;DHT22;65080;50.908;6.916;2023-04-15T05:34:56;6.80;62.20
76263;DHT22;65080;50.908;6.916;2023-04-15T05:37:24;6.70;62.10
76263;DHT22;65080;50.908;6.916;2023-04-15T05:39:52;6.70;62.20
76263;DHT22;65080;50.908;6.916;2023-04-15T05:42:20;6.60;62.50
76263;DHT22;65080;50.908;6.916;2023-04-15T05:44:49;6.50;62.70
76263;DHT22;65080;50.908;6.916;2023-04-15T05:47:19;6.50;63.10
76263;DHT22;65080;50.908;6.916;2023-04-15T05:49:47;6.50;63.50
76263;DHT22;65080;50.908;6.916;2023-04-15T05:52:15;6.50;63.70
76263;DHT22;65080;50.908;6.916;2023-04-15T05:54:44;6.60;63.90
76263;DHT22;65080;50.908;6.916;2023-04-15T05:57:12;6.70;64.00
76263;DHT22;65080;50.908;6.916;2023-04-15T05:59:40;6.80;64.00
76263;DHT22;65080;50.908;6.916;2023-04-15T06:02:09;6.90;63.90
76263;DHT22;65080;50.908;6.916;2023-04-15T06:04:39;7.10;63.90
76263;DHT22;65080;50.908;6.916;2023-04-15T06:07:07;7.30;63.90
76263;DHT22;65080;50.908;6.916;2023-04-15T06:09:35;7.40;63.80
76263;DHT22;65080;50.908;6.916;2023-04-15T06:12:03;7.50;63.70
76263;DHT22;65080;50.908;6.916;2023-04-15T06:14:32;7.60;63.50
76263;DHT22;65080;50.908;6.916;2023-04-15T06:17:00;7.80;63.40
76263;DHT22;65080;50.908;6.916;2023-04-15T06:19:29;7.90;63.20
76263;DHT22;65080;50.908;6.916;2023-04-15T06:21:59;8.00;62.80
76263;DHT22;65080;50.908;6.916;2023-04-15T06:24:28;8.10;62.90
76263;DHT22;65080;50.908;6.916;2023-04-15T06:26:56;8.20;63.10
76263;DHT22;65080;50.908;6.916;2023-04-15T06:29:24;8.30;63.10
76263;DHT22;65080;50.908;6.916;2023-04-15T06:31:52;8.40;63.00
76263;DHT22;65080;50.908;6.916;2023-04-15T06:34:22;8.50;63.00
76263;DHT22;65080;50.908;6.916;2023-04-15T06:36:50;8.70;62.90
76263;DHT22;65080;50.908;6.916;2023-04-15T06:39:22;8.80;62.60
76263;DHT22;65080;50.908;6.916;2023-04-15T06:41:50;8.90;62.30
76263;DHT22;65080;50.908;6.916;2023-04-15T06:44:18;9.10;61.90
76263;DHT22;65080;50.908;6.916;2023-04-15T06:46:46;9.10;61.50
76263;DHT22;65080;50.908;6.916;2023-04-15T06:49:14;9.20;61.20
76263;DHT22;65080;50.908;6.916;2023-04-15T06:51:43;9.30;60.90
76263;DHT22;65080;50.908;6.916;2023-04-15T06:54:11;9.40;60.70
76263;DHT22;65080;50.908;6.916;2023-04-15T06:56:40;9.50;60.50
76263;DHT22;65080;50.908;6.916;2023-04-15T06:59:08;9.60;60.40
76263;DHT22;65080;50.908;6.916;2023-04-15T07:01:37;9.70;60.20
76263;DHT22;65080;50.908;6.916;2023-04-15T07:04:05;9.90;60.10
76263;DHT22;65080;50.908;6.916;2023-04-15T07:06:34;9.90;59.90
76263;DHT22;65080;50.908;6.916;2023-04-15T07:09:02;10.10;59.00
76263;DHT22;65080;50.908;6.916;2023-04-15T07:11:31;10.20;58.90
76263;DHT22;65080;50.908;6.916;2023-04-15T07:14:01;10.30;58.70
76263;DHT22;65080;50.908;6.916;2023-04-15T07:16:29;10.40;58.30
76263;DHT22;65080;50.908;6.916;2023-04-15T07:18:58;10.40;58.00
76263;DHT22;65080;50.908;6.916;2023-04-15T07:21:26;10.60;58.00
76263;DHT22;65080;50.908;6.916;2023-04-15T07:23:55;10.70;57.80
76263;DHT22;65080;50.908;6.916;2023-04-15T07:26:24;10.80;57.60
76263;DHT22;65080;50.908;6.916;2023-04-15T07:28:52;10.90;57.30
76263;DHT22;65080;50.908;6.916;2023-04-15T07:31:22;11.00;57.00
76263;DHT22;65080;50.908;6.916;2023-04-15T07:33:51;11.10;56.70
76263;DHT22;65080;50.908;6.916;2023-04-15T07:36:19;11.20;56.50
76263;DHT22;65080;50.908;6.916;2023-04-15T07:38:47;11.30;56.30
76263;DHT22;65080;50.908;6.916;2023-04-15T07:41:15;11.40;56.20
76263;DHT22;65080;50.908;6.916;2023-04-15T07:43:44;11.50;56.00
76263;DHT22;65080;50.908;6.916;2023-04-15T07:46:12;11.70;56.00
76263;DHT22;65080;50.908;6.916;2023-04-15T07:48:42;11.80;55.80
76263;DHT22;65080;50.908;6.916;2023-04-15T07:51:10;11.90;56.30
76263;DHT22;65080;50.908;6.916;2023-04-15T07:53:38;12.00;55.60
76263;DHT22;65080;50.908;6.916;2023-04-15T07:56:07;12.10;55.40
76263;DHT22;65080;50.908;6.916;2023-04-15T07:58:35;12.20;55.20
76263;DHT22;65080;50.908;6.916;2023-04-15T08:01:04;12.40;55.20
76263;DHT22;65080;50.908;6.916;2023-04-15T08:03:32;12.50;55.10
76263;DHT22;65080;50.908;6.916;2023-04-15T08:06:03;12.60;55.00
76263;DHT22;65080;50.908;6.916;2023-04-15T08:08:31;12.70;54.70
76263;DHT22;65080;50.908;6.916;2023-04-15T08:10:59;12.80;54.60
76263;DHT22;65080;50.908;6.916;2023-04-15T08:13:27;12.90;54.50
76263;DHT22;65080;50.908;6.916;2023-04-15T08:16:16;13.00;54.30
76263;DHT22;65080;50.908;6.916;2023-04-15T08:18:45;13.00;54.00
76263;DHT22;65080;50.908;6.916;2023-04-15T08:21:15;13.10;54.00
76263;DHT22;65080;50.908;6.916;2023-04-15T08:23:44;13.10;53.80
76263;DHT22;65080;50.908;6.916;2023-04-15T08:26:12;13.20;53.80
76263;DHT22;65080;50.908;6.916;2023-04-15T08:28:42;13.30;53.70
76263;DHT22;65080;50.908;6.916;2023-04-15T08:31:11;13.30;53.60
76263;DHT22;65080;50.908;6.916;2023-04-15T08:33:39;13.30;53.60
76263;DHT22;65080;50.908;6.916;2023-04-15T08:36:08;13.40;53.60
76263;DHT22;65080;50.908;6.916;2023-04-15T08:38:38;13.50;53.80
76263;DHT22;65080;50.908;6.916;2023-04-15T08:41:09;13.50;52.70
76263;DHT22;65080;50.908;6.916;2023-04-15T08:43:45;13.60;52.20
76263;DHT22;65080;50.908;6.916;2023-04-15T08:46:14;13.60;51.40
76263;DHT22;65080;50.908;6.916;2023-04-15T08:48:43;13.70;51.10
76263;DHT22;65080;50.908;6.916;2023-04-15T08:51:13;13.70;50.40
76263;DHT22;65080;50.908;6.916;2023-04-15T08:53:43;13.70;50.10
76263;DHT22;65080;50.908;6.916;2023-04-15T08:56:14;13.80;49.60
76263;DHT22;65080;50.908;6.916;2023-04-15T08:58:43;13.80;49.10
76263;DHT22;65080;50.908;6.916;2023-04-15T09:01:12;13.90;48.90
76263;DHT22;65080;50.908;6.916;2023-04-15T09:03:41;13.90;48.70
76263;DHT22;65080;50.908;6.916;2023-04-15T09:06:09;13.90;48.20
76263;DHT22;65080;50.908;6.916;2023-04-15T09:08:38;13.90;48.00
76263;DHT22;65080;50.908;6.916;2023-04-15T09:11:07;14.00;48.00
76263;DHT22;65080;50.908;6.916;2023-04-15T09:13:36;14.00;47.80
76263;DHT22;65080;50.908;6.916;2023-04-15T09:16:05;14.00;47.80
76263;DHT22;65080;50.908;6.916;2023-04-15T09:18:36;14.00;47.60
76263;DHT22;65080;50.908;6.916;2023-04-15T09:21:05;14.00;47.30
76263;DHT22;65080;50.908;6.916;2023-04-15T09:23:35;14.00;47.00
76263;DHT22;65080;50.908;6.916;2023-04-15T09:26:04;14.00;46.80
76263;DHT22;65080;50.908;6.916;2023-04-15T09:28:40;14.00;46.80
76263;DHT22;65080;50.908;6.916;2023-04-15T09:31:09;14.00;46.70
76263;DHT22;65080;50.908;6.916;2023-04-15T09:33:53;14.10;46.90
76263;DHT22;65080;50.908;6.916;2023-04-15T09:36:23;14.20;46.90
76263;DHT22;65080;50.908;6.916;2023-04-15T09:38:55;14.20;47.00
76263;DHT22;65080;50.908;6.916;2023-04-15T09:41:25;14.20;46.80
76263;DHT22;65080;50.908;6.916;2023-04-15T09:43:54;14.30;46.80
76263;DHT22;65080;50.908;6.916;2023-04-15T09:46:40;14.30;46.80
76263;DHT22;65080;50.908;6.916;2023-04-15T09:49:10;14.30;46.60
76263;DHT22;65080;50.908;6.916;2023-04-15T09:51:39;14.30;46.80
76263;DHT22;65080;50.908;6.916;2023-04-15T09:54:18;14.30;46.80
76263;DHT22;65080;50.908;6.916;2023-04-15T09:56:47;14.30;46.90
76263;DHT22;65080;50.908;6.916;2023-04-15T09:59:17;14.40;47.00
76263;DHT22;65080;50.908;6.916;2023-04-15T10:01:46;14.40;47.00
76263;DHT22;65080;50.908;6.916;2023-04-15T10:04:15;14.40;47.10
76263;DHT22;65080;50.908;6.916;2023-04-15T10:06:44;14.50;47.00
76263;DHT22;65080;50.908;6.916;2023-04-15T10:09:12;14.60;47.00
76263;DHT22;65080;50.908;6.916;2023-04-15T10:11:41;14.60;47.00
76263;DHT22;65080;50.908;6.916;2023-04-15T10:14:10;14.70;46.90
76263;DHT22;65080;50.908;6.916;2023-04-15T10:16:44;14.70;46.70
76263;DHT22;65080;50.908;6.916;2023-04-15T10:19:18;14.70;46.70
76263;DHT22;65080;50.908;6.916;2023-04-15T10:21:50;14.70;46.70
76263;DHT22;65080;50.908;6.916;2023-04-15T10:24:19;14.70;46.80
76263;DHT22;65080;50.908;6.916;2023-04-15T10:26:48;14.70;47.00
76263;DHT22;65080;50.908;6.916;2023-04-15T10:29:17;14.70;47.10
76263;DHT22;65080;50.908;6.916;2023-04-15T10:31:48;14.70;46.90
76263;DHT22;65080;50.908;6.916;2023-04-15T10:34:17;14.60;47.00
76263;DHT22;65080;50.908;6.916;2023-04-15T10:36:46;14.60;47.20
76263;DHT22;65080;50.908;6.916;2023-04-15T10:39:39;14.50;47.20
76263;DHT22;65080;50.908;6.916;2023-04-15T10:42:09;14.50;47.30
76263;DHT22;65080;50.908;6.916;2023-04-15T10:44:38;14.50;47.40
76263;DHT22;65080;50.908;6.916;2023-04-15T10:47:14;14.50;47.50
76263;DHT22;65080;50.908;6.916;2023-04-15T10:49:46;14.50;47.60
76263;DHT22;65080;50.908;6.916;2023-04-15T10:52:15;14.50;47.70
76263;DHT22;65080;50.908;6.916;2023-04-15T10:54:44;14.60;47.80
76263;DHT22;65080;50.908;6.916;2023-04-15T10:57:15;14.70;47.90
76263;DHT22;65080;50.908;6.916;2023-04-15T11:00:03;14.70;48.00
76263;DHT22;65080;50.908;6.916;2023-04-15T11:02:40;14.80;47.90
76263;DHT22;65080;50.908;6.916;2023-04-15T11:05:09;14.80;47.80
76263;DHT22;65080;50.908;6.916;2023-04-15T11:07:47;14.90;48.00
76263;DHT22;65080;50.908;6.916;2023-04-15T11:13:23;15.00;47.50
76263;DHT22;65080;50.908;6.916;2023-04-15T11:15:59;15.00;47.50
76263;DHT22;65080;50.908;6.916;2023-04-15T11:18:31;15.10;47.50
76263;DHT22;65080;50.908;6.916;2023-04-15T11:21:02;15.10;47.40
76263;DHT22;65080;50.908;6.916;2023-04-15T11:23:32;15.20;48.00
76263;DHT22;65080;50.908;6.916;2023-04-15T11:26:01;15.30;47.40
76263;DHT22;65080;50.908;6.916;2023-04-15T11:28:32;15.40;47.20
76263;DHT22;65080;50.908;6.916;2023-04-15T11:31:05;15.40;47.20
76263;DHT22;65080;50.908;6.916;2023-04-15T11:33:36;15.40;47.10
76263;DHT22;65080;50.908;6.916;2023-04-15T11:36:04;15.50;47.10
76263;DHT22;65080;50.908;6.916;2023-04-15T11:38:33;15.40;47.00
76263;DHT22;65080;50.908;6.916;2023-04-15T11:41:03;15.40;47.10
76263;DHT22;65080;50.908;6.916;2023-04-15T11:43:32;15.40;47.10
76263;DHT22;65080;50.908;6.916;2023-04-15T11:46:02;15.40;47.20
76263;DHT22;65080;50.908;6.916;2023-04-15T11:48:33;15.30;47.10
76263;DHT22;65080;50.908;6.916;2023-04-15T11:51:04;15.30;47.30
76263;DHT22;65080;50.908;6.916;2023-04-15T11:53:37;15.30;47.50
76263;DHT22;65080;50.908;6.916;2023-04-15T11:56:07;15.30;47.90
76263;DHT22;65080;50.908;6.916;2023-04-15T11:58:36;15.30;47.60
76263;DHT22;65080;50.908;6.916;2023-04-15T12:01:06;15.20;47.60
76263;DHT22;65080;50.908;6.916;2023-04-15T12:03:38;15.30;47.80
76263;DHT22;65080;50.908;6.916;2023-04-15T12:06:16;15.20;47.80
76263;DHT22;65080;50.908;6.916;2023-04-15T12:09:00;15.20;47.90
76263;DHT22;65080;50.908;6.916;2023-04-15T12:11:34;15.10;47.80
76263;DHT22;65080;50.908;6.916;2023-04-15T12:14:05;15.00;47.90
76263;DHT22;65080;50.908;6.916;2023-04-15T12:16:35;15.00;48.00
76263;DHT22;65080;50.908;6.916;2023-04-15T12:19:19;14.90;48.10
76263;DHT22;65080;50.908;6.916;2023-04-15T12:21:56;14.90;48.10
76263;DHT22;65080;50.908;6.916;2023-04-15T12:24:27;14.90;48.30
76263;DHT22;65080;50.908;6.916;2023-04-15T12:26:56;14.80;48.30
76263;DHT22;65080;50.908;6.916;2023-04-15T12:29:25;14.90;48.50
76263;DHT22;65080;50.908;6.916;2023-04-15T12:31:57;14.80;48.50
76263;DHT22;65080;50.908;6.916;2023-04-15T12:34:27;14.70;48.70
76263;DHT22;65080;50.908;6.916;2023-04-15T12:36:58;14.60;48.90
76263;DHT22;65080;50.908;6.916;2023-04-15T12:39:29;14.50;49.00
76263;DHT22;65080;50.908;6.916;2023-04-15T12:41:58;14.40;49.10
76263;DHT22;65080;50.908;6.916;2023-04-15T12:44:27;14.40;49.30
76263;DHT22;65080;50.908;6.916;2023-04-15T12:46:56;14.40;49.40
76263;DHT22;65080;50.908;6.916;2023-04-15T12:49:26;14.30;49.50
76263;DHT22;65080;50.908;6.916;2023-04-15T12:51:57;14.30;49.70
76263;DHT22;65080;50.908;6.916;2023-04-15T12:54:27;14.20;49.80
76263;DHT22;65080;50.908;6.916;2023-04-15T12:56:56;14.20;50.10
76263;DHT22;65080;50.908;6.916;2023-04-15T12:59:25;14.10;50.20
76263;DHT22;65080;50.908;6.916;2023-04-15T13:01:56;14.10;50.30
76263;DHT22;65080;50.908;6.916;2023-04-15T13:04:26;14.10;50.40
76263;DHT22;65080;50.908;6.916;2023-04-15T13:06:58;14.10;50.50
76263;DHT22;65080;50.908;6.916;2023-04-15T13:09:26;14.00;50.60
76263;DHT22;65080;50.908;6.916;2023-04-15T13:11:54;13.90;50.80
76263;DHT22;65080;50.908;6.916;2023-04-15T13:14:23;13.90;51.00
76263;DHT22;65080;50.908;6.916;2023-04-15T13:16:51;13.90;51.20
76263;DHT22;65080;50.908;6.916;2023-04-15T13:19:19;13.80;51.30
76263;DHT22;65080;50.908;6.916;2023-04-15T13:21:48;13.80;51.50
76263;DHT22;65080;50.908;6.916;2023-04-15T13:24:17;13.80;51.60
76263;DHT22;65080;50.908;6.916;2023-04-15T13:26:45;13.80;51.60
76263;DHT22;65080;50.908;6.916;2023-04-15T13:29:16;13.80;51.70
76263;DHT22;65080;50.908;6.916;2023-04-15T13:31:44;13.70;51.70
76263;DHT22;65080;50.908;6.916;2023-04-15T13:34:12;13.70;51.80
76263;DHT22;65080;50.908;6.916;2023-04-15T13:36:41;13.60;51.80
76263;DHT22;65080;50.908;6.916;2023-04-15T13:39:09;13.60;52.00
76263;DHT22;65080;50.908;6.916;2023-04-15T13:41:39;13.50;52.00
76263;DHT22;65080;50.908;6.916;2023-04-15T13:44:07;13.50;52.60
76263;DHT22;65080;50.908;6.916;2023-04-15T13:46:35;13.40;52.10
76263;DHT22;65080;50.908;6.916;2023-04-15T13:49:05;13.40;52.20
76263;DHT22;65080;50.908;6.916;2023-04-15T13:51:33;13.40;52.30
76263;DHT22;65080;50.908;6.916;2023-04-15T13:54:02;13.40;52.40
76263;DHT22;65080;50.908;6.916;2023-04-15T13:56:31;13.40;52.50
76263;DHT22;65080;50.908;6.916;2023-04-15T13:59:01;13.40;52.60
76263;DHT22;65080;50.908;6.916;2023-04-15T14:01:30;13.40;52.80
76263;DHT22;65080;50.908;6.916;2023-04-15T14:03:58;13.40;52.90
76263;DHT22;65080;50.908;6.916;2023-04-15T14:06:27;13.40;53.10
76263;DHT22;65080;50.908;6.916;2023-04-15T14:08:55;13.40;53.20
76263;DHT22;65080;50.908;6.916;2023-04-15T14:11:24;13.30;53.20
76263;DHT22;65080;50.908;6.916;2023-04-15T14:13:52;13.30;53.40
76263;DHT22;65080;50.908;6.916;2023-04-15T14:16:21;13.30;53.50
76263;DHT22;65080;50.908;6.916;2023-04-15T14:18:50;13.40;53.60
76263;DHT22;65080;50.908;6.916;2023-04-15T14:21:18;13.40;53.60
76263;DHT22;65080;50.908;6.916;2023-04-15T14:23:46;13.40;53.60
76263;DHT22;65080;50.908;6.916;2023-04-15T14:26:14;13.40;53.60
76263;DHT22;65080;50.908;6.916;2023-04-15T14:28:42;13.30;53.60
76263;DHT22;65080;50.908;6.916;2023-04-15T14:31:11;13.40;53.70
76263;DHT22;65080;50.908;6.916;2023-04-15T14:33:41;13.30;53.70
76263;DHT22;65080;50.908;6.916;2023-04-15T14:36:09;13.30;53.70
76263;DHT22;65080;50.908;6.916;2023-04-15T14:38:37;13.30;53.90
76263;DHT22;65080;50.908;6.916;2023-04-15T14:41:06;13.30;53.90
76263;DHT22;65080;50.908;6.916;2023-04-15T14:43:34;13.30;54.00
76263;DHT22;65080;50.908;6.916;2023-04-15T14:46:03;13.20;54.10
76263;DHT22;65080;50.908;6.916;2023-04-15T14:48:31;13.20;54.30
76263;DHT22;65080;50.908;6.916;2023-04-15T14:51:01;13.20;54.50
76263;DHT22;65080;50.908;6.916;2023-04-15T14:53:29;13.10;54.70
76263;DHT22;65080;50.908;6.916;2023-04-15T14:55:57;13.10;54.90
76263;DHT22;65080;50.908;6.916;2023-04-15T14:58:25;13.10;55.10
76263;DHT22;65080;50.908;6.916;2023-04-15T15:00:54;13.00;55.40
76263;DHT22;65080;50.908;6.916;2023-04-15T15:03:22;13.00;55.60
76263;DHT22;65080;50.908;6.916;2023-04-15T15:05:50;13.00;55.80
76263;DHT22;65080;50.908;6.916;2023-04-15T15:08:20;13.00;55.90
76263;DHT22;65080;50.908;6.916;2023-04-15T15:10:48;13.10;56.20
76263;DHT22;65080;50.908;6.916;2023-04-15T15:13:17;13.10;56.30
76263;DHT22;65080;50.908;6.916;2023-04-15T15:15:46;13.20;56.50
76263;DHT22;65080;50.908;6.916;2023-04-15T15:18:16;13.30;56.60
76263;DHT22;65080;50.908;6.916;2023-04-15T15:20:45;13.30;56.70
76263;DHT22;65080;50.908;6.916;2023-04-15T15:23:14;13.30;56.90
76263;DHT22;65080;50.908;6.916;2023-04-15T15:25:45;13.30;56.80
76263;DHT22;65080;50.908;6.916;2023-04-15T15:28:13;13.30;56.90
76263;DHT22;65080;50.908;6.916;2023-04-15T15:30:41;13.30;57.00
76263;DHT22;65080;50.908;6.916;2023-04-15T15:33:09;13.20;57.10
76263;DHT22;65080;50.908;6.916;2023-04-15T15:35:38;13.20;57.20
76263;DHT22;65080;50.908;6.916;2023-04-15T15:38:07;13.20;57.30
76263;DHT22;65080;50.908;6.916;2023-04-15T15:40:35;13.20;57.40
76263;DHT22;65080;50.908;6.916;2023-04-15T15:43:04;13.10;57.40
76263;DHT22;65080;50.908;6.916;2023-04-15T15:45:33;13.00;57.50
76263;DHT22;65080;50.908;6.916;2023-04-15T15:48:01;13.00;57.50
76263;DHT22;65080;50.908;6.916;2023-04-15T15:50:30;12.90;57.70
76263;DHT22;65080;50.908;6.916;2023-04-15T15:52:58;12.90;57.70
76263;DHT22;65080;50.908;6.916;2023-04-15T15:55:26;12.90;57.90
76263;DHT22;65080;50.908;6.916;2023-04-15T15:57:55;12.80;57.90